createdAt,value
2022-10-23T00:00:35.577Z,16.40
2022-10-23T00:03:02.461Z,16.40
2022-10-23T00:05:29.597Z,16.40
2022-10-23T00:07:59.375Z,16.30
2022-10-23T00:10:29.910Z,16.30
2022-10-23T00:12:56.631Z,16.30
2022-10-23T00:15:23.629Z,16.30
2022-10-23T00:17:50.610Z,16.20
2022-10-23T00:20:17.777Z,16.30
2022-10-23T00:22:44.619Z,16.20
2022-10-23T00:25:13.637Z,16.20
2022-10-23T00:27:40.496Z,16.30
2022-10-23T00:30:07.896Z,16.20
2022-10-23T00:32:34.574Z,16.20
2022-10-23T00:35:01.378Z,16.10
2022-10-23T00:37:28.041Z,16.10
2022-10-23T00:39:54.916Z,16.00
2022-10-23T00:42:23.559Z,16.10
2022-10-23T00:44:50.337Z,16.00
2022-10-23T00:47:17.744Z,16.00
2022-10-23T00:49:44.438Z,16.00
2022-10-23T00:52:13.208Z,16.00
2022-10-23T00:54:42.165Z,15.90
2022-10-23T00:57:12.923Z,15.90
2022-10-23T00:59:40.154Z,15.20
2022-10-23T01:02:08.333Z,15.90
2022-10-23T01:04:35.228Z,15.90
2022-10-23T01:07:14.191Z,15.90
2022-10-23T01:09:43.675Z,15.80
2022-10-23T01:12:39.451Z,15.80
2022-10-23T01:15:28.112Z,15.80
2022-10-23T01:18:20.716Z,15.80
2022-10-23T01:21:01.752Z,15.80
2022-10-23T01:23:31.592Z,15.70
2022-10-23T01:26:13.614Z,15.70
2022-10-23T01:28:47.641Z,15.70
2022-10-23T01:31:39.989Z,15.70
2022-10-23T01:34:15.042Z,15.70
2022-10-23T01:36:44.565Z,15.70
2022-10-23T01:39:46.944Z,15.60
2022-10-23T01:42:17.737Z,15.60
2022-10-23T01:44:46.062Z,15.60
2022-10-23T01:47:14.654Z,15.60
2022-10-23T01:49:42.753Z,15.60
2022-10-23T01:52:12.948Z,15.60
2022-10-23T01:54:42.916Z,15.60
2022-10-23T01:57:13.275Z,15.40
2022-10-23T01:59:48.923Z,15.50
2022-10-23T02:02:16.479Z,15.50
2022-10-23T02:04:59.274Z,15.40
2022-10-23T02:07:26.778Z,15.40
2022-10-23T02:09:53.539Z,15.40
2022-10-23T02:12:57.413Z,15.40
2022-10-23T02:15:35.852Z,15.40
2022-10-23T02:18:25.824Z,15.30
2022-10-23T02:21:02.897Z,15.30
2022-10-23T02:23:35.998Z,15.30
2022-10-23T02:26:08.601Z,15.30
2022-10-23T02:28:43.610Z,15.30
2022-10-23T02:31:13.703Z,15.30
2022-10-23T02:33:40.807Z,15.70
2022-10-23T02:36:07.818Z,15.20
2022-10-23T02:38:37.397Z,15.20
2022-10-23T02:41:23.753Z,15.20
2022-10-23T02:44:01.900Z,15.20
2022-10-23T02:46:49.832Z,15.20
2022-10-23T02:49:30.303Z,15.10
2022-10-23T02:52:05.218Z,15.10
2022-10-23T02:54:52.904Z,15.10
2022-10-23T02:57:26.745Z,15.10
2022-10-23T03:00:09.484Z,15.10
2022-10-23T03:02:40.107Z,15.10
2022-10-23T03:05:10.519Z,15.00
2022-10-23T03:07:39.192Z,15.00
2022-10-23T03:10:07.054Z,15.00
2022-10-23T03:12:33.821Z,15.00
2022-10-23T03:15:00.431Z,15.00
2022-10-23T03:17:27.105Z,15.00
2022-10-23T03:19:53.724Z,15.00
2022-10-23T03:22:20.363Z,15.00
2022-10-23T03:24:47.022Z,14.90
2022-10-23T03:27:13.782Z,14.90
2022-10-23T03:29:40.529Z,14.90
2022-10-23T03:32:07.245Z,14.90
2022-10-23T03:34:34.698Z,14.90
2022-10-23T03:37:01.378Z,15.20
2022-10-23T03:39:28.165Z,14.80
2022-10-23T03:41:54.788Z,14.80
2022-10-23T03:44:21.421Z,14.80
2022-10-23T03:46:48.034Z,14.80
2022-10-23T03:49:14.970Z,14.90
2022-10-23T03:51:41.971Z,14.80
2022-10-23T03:54:09.094Z,14.90
2022-10-23T03:56:35.811Z,14.80
2022-10-23T03:59:02.475Z,14.80
2022-10-23T04:01:29.268Z,14.80
2022-10-23T04:03:56.003Z,14.80
2022-10-23T04:06:22.638Z,14.80
2022-10-23T04:08:49.325Z,14.80
2022-10-23T04:11:16.001Z,14.80
2022-10-23T04:13:42.742Z,14.70
2022-10-23T04:16:09.379Z,14.70
2022-10-23T04:18:36.032Z,14.70
2022-10-23T04:21:03.777Z,14.70
2022-10-23T04:23:30.411Z,14.70
2022-10-23T04:25:58.065Z,14.70
2022-10-23T04:28:25.205Z,14.70
2022-10-23T04:30:51.897Z,14.70
2022-10-23T04:33:18.768Z,14.70
2022-10-23T04:35:45.461Z,14.70
2022-10-23T04:38:12.426Z,14.70
2022-10-23T04:40:39.063Z,15.20
2022-10-23T04:43:05.736Z,14.60
2022-10-23T04:45:32.384Z,14.60
2022-10-23T04:47:59.052Z,14.60
2022-10-23T04:50:25.799Z,14.60
2022-10-23T04:52:56.871Z,14.60
2022-10-23T04:55:25.405Z,14.60
2022-10-23T04:57:52.812Z,14.60
2022-10-23T05:00:19.858Z,14.60
2022-10-23T05:02:46.534Z,14.60
2022-10-23T05:05:13.169Z,14.60
2022-10-23T05:07:39.906Z,14.60
2022-10-23T05:10:07.030Z,14.50
2022-10-23T05:12:33.656Z,14.50
2022-10-23T05:15:01.210Z,14.60
2022-10-23T05:17:33.687Z,14.60
2022-10-23T05:20:03.915Z,14.50
2022-10-23T05:22:33.778Z,14.50
2022-10-23T05:25:02.147Z,14.50
2022-10-23T05:27:28.813Z,14.50
2022-10-23T05:29:55.413Z,14.50
2022-10-23T05:32:22.503Z,14.50
2022-10-23T05:34:49.151Z,14.50
2022-10-23T05:37:16.472Z,14.50
2022-10-23T05:39:43.217Z,14.50
2022-10-23T05:42:09.867Z,14.50
2022-10-23T05:44:36.783Z,14.50
2022-10-23T05:47:03.447Z,14.50
2022-10-23T05:49:30.071Z,14.40
2022-10-23T05:51:56.690Z,14.50
2022-10-23T05:54:23.379Z,14.40
2022-10-23T05:56:50.084Z,14.50
2022-10-23T05:59:20.412Z,14.40
2022-10-23T06:01:49.741Z,14.50
2022-10-23T06:04:16.393Z,14.50
2022-10-23T06:06:47.869Z,14.40
2022-10-23T06:09:15.591Z,14.40
2022-10-23T06:11:43.001Z,14.40
2022-10-23T06:14:09.707Z,14.40
2022-10-23T06:16:36.449Z,14.40
2022-10-23T06:19:03.202Z,14.40
2022-10-23T06:21:29.835Z,14.40
2022-10-23T06:23:56.538Z,14.40
2022-10-23T06:26:23.182Z,14.40
2022-10-23T06:28:49.825Z,14.40
2022-10-23T06:31:19.102Z,14.50
2022-10-23T06:33:45.760Z,14.40
2022-10-23T06:36:12.890Z,14.40
2022-10-23T06:38:40.460Z,14.40
2022-10-23T06:41:13.081Z,14.40
2022-10-23T06:43:39.739Z,14.50
2022-10-23T06:46:06.478Z,14.40
2022-10-23T06:48:33.097Z,14.40
2022-10-23T06:51:00.086Z,14.40
2022-10-23T06:53:27.817Z,14.40
2022-10-23T06:56:02.380Z,14.40
2022-10-23T06:58:29.235Z,14.40
2022-10-23T07:00:56.545Z,14.40
2022-10-23T07:03:23.266Z,14.40
2022-10-23T07:05:49.895Z,14.40
2022-10-23T07:08:16.610Z,14.60
2022-10-23T07:10:43.374Z,14.50
2022-10-23T07:13:11.190Z,14.40
2022-10-23T07:15:38.674Z,14.50
2022-10-23T07:18:05.985Z,14.50
2022-10-23T07:20:32.776Z,14.40
2022-10-23T07:22:59.414Z,14.50
2022-10-23T07:25:27.044Z,14.50
2022-10-23T07:27:55.705Z,14.60
2022-10-23T07:30:22.493Z,14.50
2022-10-23T07:32:49.109Z,14.50
2022-10-23T07:35:16.811Z,14.50
2022-10-23T07:37:43.976Z,14.60
2022-10-23T07:40:11.253Z,15.20
2022-10-23T07:42:38.835Z,14.60
2022-10-23T07:45:07.501Z,14.60
2022-10-23T07:47:34.496Z,14.60
2022-10-23T07:50:01.195Z,14.60
2022-10-23T07:52:31.960Z,14.70
2022-10-23T07:55:01.818Z,14.70
2022-10-23T07:57:28.478Z,14.70
2022-10-23T07:59:55.259Z,14.70
2022-10-23T08:02:22.015Z,14.70
2022-10-23T08:04:49.898Z,14.80
2022-10-23T08:07:16.754Z,14.80
2022-10-23T08:09:43.529Z,14.80
2022-10-23T08:12:10.464Z,14.80
2022-10-23T08:14:37.145Z,14.90
2022-10-23T08:17:05.214Z,15.00
2022-10-23T08:19:32.290Z,15.00
2022-10-23T08:21:59.039Z,15.10
2022-10-23T08:24:25.666Z,15.00
2022-10-23T08:26:52.346Z,15.00
2022-10-23T08:29:19.157Z,15.10
2022-10-23T08:31:45.998Z,15.10
2022-10-23T08:34:22.161Z,15.60
2022-10-23T08:37:51.608Z,16.40
2022-10-23T08:39:50.150Z,15.30
2022-10-23T08:42:25.281Z,15.40
2022-10-23T08:45:06.595Z,15.30
2022-10-23T08:47:42.853Z,15.40
2022-10-23T08:50:32.840Z,15.50
2022-10-23T08:53:12.587Z,15.60
2022-10-23T08:55:43.972Z,15.50
2022-10-23T08:58:23.357Z,15.50
2022-10-23T09:00:50.539Z,15.60
2022-10-23T09:03:18.221Z,15.80
2022-10-23T09:06:09.042Z,15.80
2022-10-23T09:08:40.674Z,15.80
2022-10-23T09:11:32.297Z,15.80
2022-10-23T09:14:14.493Z,15.90
2022-10-23T09:17:26.529Z,16.00
2022-10-23T09:20:00.276Z,16.10
2022-10-23T09:22:27.934Z,16.10
2022-10-23T09:24:54.566Z,16.10
2022-10-23T09:27:21.286Z,16.20
2022-10-23T09:29:50.130Z,16.20
2022-10-23T09:32:16.837Z,16.20
2022-10-23T09:34:55.042Z,16.40
2022-10-23T09:37:25.611Z,16.30
2022-10-23T09:40:02.878Z,16.40
2022-10-23T09:42:29.546Z,16.50
2022-10-23T09:44:57.480Z,16.50
2022-10-23T09:47:25.780Z,16.60
2022-10-23T09:49:54.928Z,16.60
2022-10-23T09:52:21.529Z,16.70
2022-10-23T09:54:56.878Z,16.70
2022-10-23T09:57:44.311Z,16.80
2022-10-23T10:00:13.979Z,16.90
2022-10-23T10:08:18.248Z,17.10
2022-10-23T10:10:49.846Z,17.20
2022-10-23T10:13:45.331Z,17.20
2022-10-23T10:19:35.070Z,17.40
2022-10-23T10:22:56.203Z,17.50
2022-10-23T10:25:40.467Z,17.60
2022-10-23T10:28:25.849Z,17.70
2022-10-23T10:31:20.022Z,17.70
2022-10-23T10:34:05.423Z,17.80
2022-10-23T10:36:51.443Z,17.90
2022-10-23T10:39:40.016Z,18.00
2022-10-23T10:42:17.234Z,18.10
2022-10-23T10:45:05.802Z,18.10
2022-10-23T10:48:03.819Z,18.20
2022-10-23T10:51:03.242Z,18.30
2022-10-23T10:54:23.586Z,18.40
2022-10-23T10:56:50.419Z,18.50
2022-10-23T10:59:21.070Z,18.60
2022-10-23T11:02:04.432Z,18.60
2022-10-23T11:04:35.511Z,18.70
2022-10-23T11:07:07.575Z,18.80
2022-10-23T11:09:34.577Z,18.80
2022-10-23T11:12:01.361Z,18.90
2022-10-23T11:14:31.735Z,19.00
2022-10-23T11:17:07.867Z,19.00
2022-10-23T11:19:35.985Z,19.10
2022-10-23T11:22:23.678Z,19.10
2022-10-23T11:25:28.692Z,19.20
2022-10-23T11:28:13.460Z,19.30
2022-10-23T11:31:22.187Z,19.30
2022-10-23T11:34:01.334Z,19.40
2022-10-23T11:37:09.139Z,19.40
2022-10-23T11:39:37.743Z,19.50
2022-10-23T11:42:04.341Z,19.50
2022-10-23T11:44:45.994Z,19.60
2022-10-23T11:47:34.990Z,19.60
2022-10-23T11:50:07.735Z,19.70
2022-10-23T11:53:12.609Z,19.70
2022-10-23T11:55:42.069Z,19.70
2022-10-23T11:58:22.317Z,19.80
2022-10-23T12:00:59.874Z,19.80
2022-10-23T12:03:31.627Z,19.90
2022-10-23T12:06:04.475Z,19.90
2022-10-23T12:08:34.206Z,20.00
2022-10-23T12:11:01.099Z,20.00
2022-10-23T12:13:37.392Z,20.00
2022-10-23T12:16:07.453Z,20.10
2022-10-23T12:18:44.573Z,20.10
2022-10-23T12:21:22.967Z,20.20
2022-10-23T12:24:09.240Z,20.20
2022-10-23T12:26:46.765Z,20.30
2022-10-23T12:29:22.219Z,20.30
2022-10-23T12:32:01.839Z,20.30
2022-10-23T12:34:46.290Z,20.40
2022-10-23T12:37:51.516Z,20.40
2022-10-23T12:40:18.278Z,20.50
2022-10-23T12:42:54.620Z,20.50
2022-10-23T12:45:27.756Z,20.50
2022-10-23T12:47:54.900Z,20.60
2022-10-23T12:50:27.370Z,20.70
2022-10-23T12:52:56.380Z,20.70
2022-10-23T12:55:24.997Z,20.80
2022-10-23T12:57:52.752Z,20.80
2022-10-23T13:00:22.223Z,20.90
2022-10-23T13:02:59.931Z,21.00
2022-10-23T13:05:27.615Z,21.10
2022-10-23T13:07:54.524Z,21.20
2022-10-23T13:10:22.590Z,21.30
2022-10-23T13:12:58.521Z,21.40
2022-10-23T13:15:26.677Z,21.50
2022-10-23T13:17:53.336Z,21.60
2022-10-23T13:20:28.869Z,21.70
2022-10-23T13:23:00.764Z,21.80
2022-10-23T13:25:33.184Z,21.80
2022-10-23T13:28:14.066Z,21.90
2022-10-23T13:30:46.122Z,22.10
2022-10-23T13:33:23.415Z,22.20
2022-10-23T13:36:02.432Z,22.30
2022-10-23T13:38:31.237Z,22.40
2022-10-23T13:41:02.051Z,22.40
2022-10-23T13:43:30.708Z,22.50
2022-10-23T13:46:01.321Z,22.60
2022-10-23T13:48:29.037Z,22.60
2022-10-23T13:51:02.350Z,22.60
2022-10-23T13:53:30.464Z,22.70
2022-10-23T13:55:58.716Z,22.70
2022-10-23T13:58:25.845Z,22.70
2022-10-23T14:00:53.209Z,22.70
2022-10-23T14:03:24.273Z,22.80
2022-10-23T14:05:51.709Z,22.80
2022-10-23T14:08:18.553Z,22.80
2022-10-23T14:10:45.951Z,22.90
2022-10-23T14:13:12.698Z,22.90
2022-10-23T14:15:39.480Z,22.80
2022-10-23T14:18:08.356Z,22.80
2022-10-23T14:20:35.285Z,22.80
2022-10-23T14:23:02.101Z,22.80
2022-10-23T14:25:28.717Z,22.90
2022-10-23T14:30:26.846Z,22.90
2022-10-23T14:32:53.457Z,22.80
2022-10-23T14:35:20.155Z,23.20
2022-10-23T14:37:47.219Z,22.90
2022-10-23T14:40:13.927Z,22.80
2022-10-23T14:42:40.610Z,22.80
2022-10-23T14:45:07.876Z,22.80
2022-10-23T14:47:34.689Z,22.80
2022-10-23T14:50:04.563Z,22.80
2022-10-23T14:52:31.614Z,22.70
2022-10-23T14:54:58.769Z,22.70
2022-10-23T14:57:25.860Z,22.70
2022-10-23T15:00:01.167Z,22.70
2022-10-23T15:02:28.690Z,22.70
2022-10-23T15:04:55.532Z,22.70
2022-10-23T15:07:22.218Z,22.60
2022-10-23T15:09:51.750Z,22.60
2022-10-23T15:12:18.782Z,22.60
2022-10-23T15:14:52.985Z,22.60
2022-10-23T15:17:20.251Z,22.60
2022-10-23T15:19:48.256Z,22.50
2022-10-23T15:22:14.880Z,22.50
2022-10-23T15:24:41.783Z,22.50
2022-10-23T15:29:36.197Z,22.50
2022-10-23T15:32:04.233Z,22.50
2022-10-23T15:34:32.408Z,22.40
2022-10-23T15:36:59.458Z,22.90
2022-10-23T15:39:29.341Z,22.60
2022-10-23T15:41:58.145Z,22.30
2022-10-23T15:44:27.068Z,23.10
2022-10-23T15:46:54.203Z,23.80
2022-10-23T15:49:20.848Z,22.30
2022-10-23T15:51:47.580Z,22.30
2022-10-23T15:54:17.022Z,22.50
2022-10-23T15:56:44.652Z,22.30
2022-10-23T15:59:30.584Z,22.20
2022-10-23T16:01:57.495Z,22.20
2022-10-23T16:04:24.410Z,22.20
2022-10-23T16:06:51.154Z,22.20
2022-10-23T16:09:17.854Z,23.70
2022-10-23T16:11:45.286Z,22.10
2022-10-23T16:14:14.581Z,22.10
2022-10-23T16:16:41.243Z,22.10
2022-10-23T16:19:08.281Z,22.10
2022-10-23T16:21:36.143Z,22.00
2022-10-23T16:24:04.950Z,22.00
2022-10-23T16:26:31.831Z,22.00
2022-10-23T16:29:01.189Z,22.00
2022-10-23T16:31:27.924Z,22.00
2022-10-23T16:36:28.964Z,21.90
2022-10-23T16:38:55.981Z,21.90
2022-10-23T16:41:22.614Z,21.80
2022-10-23T16:43:49.390Z,21.80
2022-10-23T16:46:18.635Z,21.80
2022-10-23T16:48:45.879Z,21.80
2022-10-23T16:51:14.853Z,21.80
2022-10-23T16:53:42.477Z,21.70
2022-10-23T16:56:10.762Z,21.70
2022-10-23T16:58:37.692Z,21.60
2022-10-23T17:01:07.800Z,21.60
2022-10-23T17:03:40.196Z,21.60
2022-10-23T17:06:11.234Z,21.60
2022-10-23T17:08:38.606Z,21.60
2022-10-23T17:11:14.374Z,21.50
2022-10-23T17:13:46.766Z,21.50
2022-10-23T17:16:19.507Z,21.50
2022-10-23T17:18:46.264Z,21.50
2022-10-23T17:21:14.134Z,21.50
2022-10-23T17:23:41.574Z,21.50
2022-10-23T17:26:12.876Z,21.50
2022-10-23T17:28:42.131Z,21.40
2022-10-23T17:31:20.591Z,21.40
2022-10-23T17:33:48.141Z,21.40
2022-10-23T17:36:15.835Z,21.40
2022-10-23T17:38:45.901Z,21.30
2022-10-23T17:41:14.033Z,21.30
2022-10-23T17:43:40.847Z,21.30
2022-10-23T17:46:09.599Z,21.30
2022-10-23T17:48:36.546Z,21.30
2022-10-23T17:51:06.682Z,23.20
2022-10-23T17:53:34.395Z,21.00
2022-10-23T17:56:02.861Z,21.20
2022-10-23T17:58:29.949Z,21.20
2022-10-23T18:00:56.987Z,21.20
2022-10-23T18:03:23.787Z,21.20
2022-10-23T18:05:51.210Z,21.20
2022-10-23T18:08:17.849Z,21.20
2022-10-23T18:10:44.569Z,21.20
2022-10-23T18:13:11.261Z,21.10
2022-10-23T18:15:41.142Z,21.20
2022-10-23T18:18:07.882Z,21.60
2022-10-23T18:20:40.908Z,21.10
2022-10-23T18:23:13.549Z,21.10
2022-10-23T18:25:43.324Z,21.00
2022-10-23T18:28:10.253Z,21.00
2022-10-23T18:33:05.058Z,21.00
2022-10-23T18:35:35.955Z,21.00
2022-10-23T18:38:04.287Z,20.90
2022-10-23T18:40:32.215Z,20.90
2022-10-23T18:42:59.098Z,21.00
2022-10-23T18:45:25.850Z,20.80
2022-10-23T18:47:52.505Z,20.80
2022-10-23T18:50:19.461Z,20.70
2022-10-23T18:52:46.178Z,20.70
2022-10-23T18:55:13.202Z,20.70
2022-10-23T18:57:40.327Z,20.70
2022-10-23T19:00:08.859Z,20.70
2022-10-23T19:02:37.033Z,20.70
2022-10-23T19:05:04.950Z,22.30
2022-10-23T19:07:33.008Z,20.70
2022-10-23T19:10:00.677Z,20.70
2022-10-23T19:12:27.336Z,20.70
2022-10-23T19:14:54.925Z,20.90
2022-10-23T19:17:27.531Z,20.70
2022-10-23T19:20:00.131Z,20.70
2022-10-23T19:22:29.343Z,22.10
2022-10-23T19:25:03.806Z,20.70
2022-10-23T19:27:30.834Z,20.60
2022-10-23T19:30:03.198Z,21.50
2022-10-23T19:32:30.632Z,20.80
2022-10-23T19:34:58.583Z,20.60
2022-10-23T19:37:25.345Z,20.60
2022-10-23T19:39:51.997Z,20.60
2022-10-23T19:42:18.736Z,20.60
2022-10-23T19:44:45.393Z,20.60
2022-10-23T19:47:11.992Z,20.60
2022-10-23T19:49:38.636Z,21.20
2022-10-23T19:52:05.299Z,20.50
2022-10-23T19:54:32.277Z,20.60
2022-10-23T19:56:59.112Z,20.50
2022-10-23T19:59:25.786Z,20.50
2022-10-23T20:01:52.490Z,20.50
2022-10-23T20:04:19.477Z,20.50
2022-10-23T20:06:46.876Z,20.50
2022-10-23T20:09:13.526Z,20.40
2022-10-23T20:11:40.851Z,20.50
2022-10-23T20:14:08.053Z,20.50
2022-10-23T20:16:37.068Z,20.50
2022-10-23T20:19:07.158Z,20.40
2022-10-23T20:21:38.236Z,20.40
2022-10-23T20:24:05.671Z,20.40
2022-10-23T20:26:32.553Z,20.40
2022-10-23T20:28:59.164Z,20.30
2022-10-23T20:31:26.818Z,20.30
2022-10-23T20:33:54.259Z,20.30
2022-10-23T20:36:22.744Z,20.30
2022-10-23T20:38:49.517Z,20.30
2022-10-23T20:41:16.132Z,20.30
2022-10-23T20:43:43.112Z,20.20
2022-10-23T20:46:10.391Z,20.20
2022-10-23T20:48:38.339Z,20.20
2022-10-23T20:51:06.718Z,20.10
2022-10-23T20:53:35.349Z,20.10
2022-10-23T20:56:11.647Z,20.10
2022-10-23T20:58:38.334Z,20.00
2022-10-23T21:01:06.909Z,20.10
2022-10-23T21:03:34.132Z,20.10
2022-10-23T21:06:05.384Z,20.00
2022-10-23T21:08:32.185Z,20.00
2022-10-23T21:10:58.928Z,20.00
2022-10-23T21:13:27.165Z,20.00
2022-10-23T21:15:54.129Z,20.00
2022-10-23T21:18:33.836Z,20.00
2022-10-23T21:21:08.518Z,20.00
2022-10-23T21:23:35.990Z,20.10
2022-10-23T21:26:06.351Z,20.00
2022-10-23T21:28:34.573Z,20.00
2022-10-23T21:31:06.670Z,20.10
2022-10-23T21:33:33.485Z,20.10
2022-10-23T21:36:12.825Z,20.10
2022-10-23T21:38:40.421Z,20.10
2022-10-23T21:41:08.807Z,20.10
2022-10-23T21:43:35.503Z,20.20
2022-10-23T21:46:06.524Z,20.20
2022-10-23T21:48:34.307Z,20.10
2022-10-23T21:51:01.439Z,20.20
2022-10-23T21:53:28.889Z,20.20
2022-10-23T21:55:56.757Z,20.20
2022-10-23T21:58:23.604Z,20.20
2022-10-23T22:00:50.296Z,20.20
2022-10-23T22:03:16.957Z,20.20
2022-10-23T22:05:43.693Z,20.20
2022-10-23T22:08:10.364Z,20.20
2022-10-23T22:10:37.188Z,20.20
2022-10-23T22:13:03.925Z,20.30
2022-10-23T22:15:30.629Z,20.30
2022-10-23T22:17:59.151Z,20.30
2022-10-23T22:20:26.060Z,20.20
2022-10-23T22:22:52.808Z,20.30
2022-10-23T22:25:19.527Z,20.20
2022-10-23T22:27:46.571Z,20.20
2022-10-23T22:30:13.611Z,20.20
2022-10-23T22:32:40.397Z,20.20
2022-10-23T22:35:07.623Z,20.30
2022-10-23T22:37:34.483Z,20.30
2022-10-23T22:40:02.446Z,20.20
2022-10-23T22:42:30.479Z,20.30
2022-10-23T22:44:57.210Z,20.20
2022-10-23T22:47:24.086Z,20.30
2022-10-23T22:49:51.633Z,20.30
2022-10-23T22:52:18.335Z,20.30
2022-10-23T22:54:45.026Z,20.30
2022-10-23T22:57:11.730Z,20.30
2022-10-23T22:59:38.510Z,20.20
2022-10-23T23:02:05.436Z,20.30
2022-10-23T23:04:37.674Z,20.30
2022-10-23T23:07:06.874Z,20.30
2022-10-23T23:09:37.314Z,20.30
2022-10-23T23:12:04.384Z,20.30
2022-10-23T23:14:31.069Z,20.20
2022-10-23T23:16:57.800Z,20.20
2022-10-23T23:19:26.608Z,20.20
2022-10-23T23:21:57.549Z,20.30
2022-10-23T23:24:25.184Z,20.30
2022-10-23T23:26:52.081Z,20.30
2022-10-23T23:29:19.169Z,20.20
2022-10-23T23:31:45.986Z,20.20
2022-10-23T23:34:12.717Z,20.20
2022-10-23T23:36:39.597Z,20.20
2022-10-23T23:39:06.391Z,20.20
2022-10-23T23:41:34.304Z,20.20
2022-10-23T23:44:01.139Z,20.20
2022-10-23T23:46:28.027Z,20.20
2022-10-23T23:48:54.721Z,20.20
2022-10-23T23:51:23.322Z,20.20
2022-10-23T23:53:50.781Z,20.20
2022-10-23T23:56:18.212Z,20.20
2022-10-23T23:58:44.987Z,20.20
